createdAt,value
2023-03-06T00:01:19.274Z,98306.66
2023-03-06T00:03:48.065Z,98307.03
2023-03-06T00:06:16.753Z,98301.41
2023-03-06T00:08:45.436Z,98293.91
2023-03-06T00:11:15.438Z,98290.50
2023-03-06T00:13:44.045Z,98292.47
2023-03-06T00:16:14.015Z,98285.78
2023-03-06T00:18:44.034Z,98281.34
2023-03-06T00:21:12.712Z,98275.44
2023-03-06T00:23:41.852Z,98282.41
2023-03-06T00:26:10.693Z,98276.78
2023-03-06T00:28:39.412Z,98275.53
2023-03-06T00:31:08.085Z,98268.25
2023-03-06T00:33:38.090Z,98258.31
2023-03-06T00:36:07.382Z,98262.63
2023-03-06T00:38:37.137Z,98258.44
2023-03-06T00:41:09.976Z,98254.25
2023-03-06T00:43:38.624Z,98247.75
2023-03-06T00:46:07.632Z,98246.31
2023-03-06T00:48:36.435Z,98247.56
2023-03-06T00:51:07.032Z,98242.38
2023-03-06T00:53:35.685Z,98236.59
2023-03-06T00:56:04.277Z,98233.41
2023-03-06T00:58:32.912Z,98221.81
2023-03-06T01:01:01.552Z,98230.53
2023-03-06T01:03:30.172Z,98235.53
2023-03-06T01:05:59.274Z,98218.97
2023-03-06T01:08:29.272Z,98226.31
2023-03-06T01:10:57.889Z,98214.31
2023-03-06T01:13:26.490Z,98218.50
2023-03-06T01:15:55.108Z,98217.44
2023-03-06T01:18:23.931Z,98204.88
2023-03-06T01:20:52.550Z,98204.19
2023-03-06T01:23:21.154Z,98201.88
2023-03-06T01:25:51.091Z,98195.47
2023-03-06T01:28:19.725Z,98209.97
2023-03-06T01:30:48.440Z,98200.63
2023-03-06T01:33:17.253Z,98196.44
2023-03-06T01:35:45.990Z,98192.94
2023-03-06T01:38:14.827Z,98192.06
2023-03-06T01:40:43.415Z,98199.78
2023-03-06T01:43:27.075Z,98194.34
2023-03-06T01:46:27.525Z,98186.41
2023-03-06T01:48:58.110Z,98188.25
2023-03-06T01:51:29.683Z,98182.28
2023-03-06T01:54:00.136Z,98174.78
2023-03-06T01:56:29.886Z,98182.91
2023-03-06T01:58:59.868Z,98168.38
2023-03-06T02:01:28.805Z,98173.19
2023-03-06T02:03:57.505Z,98167.56
2023-03-06T02:06:26.311Z,98158.66
2023-03-06T02:08:55.513Z,98157.41
2023-03-06T02:11:25.284Z,98155.22
2023-03-06T02:13:54.893Z,98148.63
2023-03-06T02:16:26.902Z,98152.03
2023-03-06T02:18:55.841Z,98144.63
2023-03-06T02:21:26.606Z,98147.22
2023-03-06T02:24:07.895Z,98143.03
2023-03-06T02:26:38.996Z,98142.06
2023-03-06T02:29:08.623Z,98139.28
2023-03-06T02:31:37.453Z,98132.88
2023-03-06T02:34:09.794Z,98129.66
2023-03-06T02:36:42.925Z,98126.47
2023-03-06T02:39:11.622Z,98127.63
2023-03-06T02:41:41.899Z,98123.44
2023-03-06T02:44:10.544Z,98118.28
2023-03-06T02:46:39.167Z,98109.56
2023-03-06T02:49:07.816Z,98107.94
2023-03-06T02:51:36.411Z,98112.94
2023-03-06T02:54:05.300Z,98100.81
2023-03-06T02:56:33.939Z,98104.56
2023-03-06T02:59:04.053Z,98101.25
2023-03-06T03:01:32.849Z,98104.19
2023-03-06T03:04:01.540Z,98100.81
2023-03-06T03:06:30.204Z,98102.06
2023-03-06T03:08:58.854Z,98095.19
2023-03-06T03:11:27.520Z,98097.31
2023-03-06T03:13:56.148Z,98097.31
2023-03-06T03:16:26.067Z,98089.81
2023-03-06T03:18:54.704Z,98102.09
2023-03-06T03:21:23.257Z,98097.19
2023-03-06T03:23:51.841Z,98098.28
2023-03-06T03:26:21.794Z,98102.28
2023-03-06T03:28:50.410Z,98104.66
2023-03-06T03:31:19.102Z,98095.72
2023-03-06T03:33:49.041Z,98094.31
2023-03-06T03:36:17.621Z,98092.53
2023-03-06T03:38:46.221Z,98080.16
2023-03-06T03:41:14.861Z,98085.94
2023-03-06T03:43:43.967Z,98078.94
2023-03-06T03:46:12.618Z,98085.06
2023-03-06T03:48:41.276Z,98081.41
2023-03-06T03:51:12.775Z,98081.69
2023-03-06T03:53:41.394Z,98088.03
2023-03-06T03:56:10.092Z,98090.88
2023-03-06T03:58:38.827Z,98085.69
2023-03-06T04:01:07.776Z,98080.72
2023-03-06T04:03:36.473Z,98076.09
2023-03-06T04:06:05.236Z,98070.91
2023-03-06T04:08:35.513Z,98069.94
2023-03-06T04:11:04.260Z,98069.38
2023-03-06T04:13:33.128Z,98057.28
2023-03-06T04:16:01.787Z,98063.06
2023-03-06T04:18:30.418Z,98049.88
2023-03-06T04:20:59.061Z,98050.69
2023-03-06T04:23:27.879Z,98054.19
2023-03-06T04:25:57.905Z,98061.31
2023-03-06T04:28:27.140Z,98053.59
2023-03-06T04:30:55.711Z,98052.94
2023-03-06T04:33:24.553Z,98051.78
2023-03-06T04:35:53.240Z,98047.44
2023-03-06T04:38:21.897Z,98042.69
2023-03-06T04:40:50.589Z,98046.63
2023-03-06T04:43:20.846Z,98054.63
2023-03-06T04:45:49.501Z,98046.63
2023-03-06T04:48:19.716Z,98032.13
2023-03-06T04:50:48.452Z,98033.97
2023-03-06T04:53:19.553Z,98031.75
2023-03-06T04:55:48.383Z,98033.53
2023-03-06T04:58:16.968Z,98034.72
2023-03-06T05:00:47.022Z,98035.25
2023-03-06T05:03:15.727Z,98044.19
2023-03-06T05:05:44.477Z,98039.44
2023-03-06T05:08:15.252Z,98036.84
2023-03-06T05:10:44.162Z,98029.28
2023-03-06T05:13:12.849Z,98037.81
2023-03-06T05:15:42.005Z,98028.72
2023-03-06T05:18:11.969Z,98029.56
2023-03-06T05:20:40.603Z,98035.13
2023-03-06T05:23:09.300Z,98024.38
2023-03-06T05:25:39.581Z,98028.50
2023-03-06T05:28:08.702Z,98031.09
2023-03-06T05:30:37.754Z,98029.66
2023-03-06T05:33:06.379Z,98022.97
2023-03-06T05:35:36.397Z,98024.50
2023-03-06T05:38:05.085Z,98018.34
2023-03-06T05:40:33.707Z,98022.47
2023-03-06T05:43:02.345Z,98019.44
2023-03-06T05:45:30.948Z,98016.88
2023-03-06T05:47:59.580Z,98019.56
2023-03-06T05:50:28.576Z,98018.09
2023-03-06T05:52:58.513Z,98017.91
2023-03-06T05:55:27.221Z,98021.09
2023-03-06T05:57:55.902Z,98022.31
2023-03-06T06:00:25.306Z,98031.44
2023-03-06T06:02:54.330Z,98033.41
2023-03-06T06:05:22.928Z,98026.63
2023-03-06T06:07:51.595Z,98028.59
2023-03-06T06:10:22.712Z,98029.41
2023-03-06T06:12:51.368Z,98030.22
2023-03-06T06:15:20.367Z,98033.09
2023-03-06T06:17:49.033Z,98034.38
2023-03-06T06:20:17.872Z,98030.91
2023-03-06T06:22:46.470Z,98037.34
2023-03-06T06:25:15.512Z,98037.88
2023-03-06T06:27:45.435Z,98038.94
2023-03-06T06:30:14.835Z,98042.50
2023-03-06T06:32:43.616Z,98038.94
2023-03-06T06:35:12.489Z,98042.06
2023-03-06T06:37:41.160Z,98044.88
2023-03-06T06:40:12.203Z,98041.72
2023-03-06T06:42:40.775Z,98039.53
2023-03-06T06:45:12.138Z,98036.97
2023-03-06T06:47:41.604Z,98038.13
2023-03-06T06:50:13.335Z,98037.81
2023-03-06T06:52:41.951Z,98033.41
2023-03-06T06:55:11.483Z,98036.34
2023-03-06T06:57:41.125Z,98032.25
2023-03-06T07:00:14.499Z,98033.03
2023-03-06T07:02:43.166Z,98034.25
2023-03-06T07:05:11.990Z,98037.91
2023-03-06T07:07:40.662Z,98042.69
2023-03-06T07:10:15.433Z,98039.13
2023-03-06T07:12:44.247Z,98040.00
2023-03-06T07:15:16.078Z,98046.75
2023-03-06T07:17:44.720Z,98040.84
2023-03-06T07:20:13.352Z,98040.84
2023-03-06T07:22:50.915Z,98045.59
2023-03-06T07:25:20.746Z,98049.53
2023-03-06T07:27:53.898Z,98045.94
2023-03-06T07:30:24.751Z,98050.13
2023-03-06T07:32:55.023Z,98053.69
2023-03-06T07:35:25.090Z,98054.31
2023-03-06T07:37:53.972Z,98052.72
2023-03-06T07:40:22.824Z,98057.50
2023-03-06T07:42:54.280Z,98057.97
2023-03-06T07:45:24.772Z,98062.56
2023-03-06T07:47:54.152Z,98067.53
2023-03-06T07:50:22.880Z,98068.00
2023-03-06T07:52:52.014Z,98075.97
2023-03-06T07:55:21.070Z,98067.72
2023-03-06T07:57:51.327Z,98069.31
2023-03-06T08:00:20.740Z,98074.25
2023-03-06T08:02:50.724Z,98077.00
2023-03-06T08:05:19.619Z,98083.00
2023-03-06T08:07:48.239Z,98086.78
2023-03-06T08:10:18.172Z,98078.31
2023-03-06T08:12:46.910Z,98074.91
2023-03-06T08:15:15.671Z,98084.72
2023-03-06T08:17:44.592Z,98078.97
2023-03-06T08:20:15.400Z,98079.81
2023-03-06T08:22:43.998Z,98077.50
2023-03-06T08:25:13.361Z,98086.13
2023-03-06T08:27:42.120Z,98081.19
2023-03-06T08:30:11.803Z,98077.25
2023-03-06T08:32:40.494Z,98068.06
2023-03-06T08:35:09.812Z,98074.50
2023-03-06T08:37:39.835Z,98074.78
2023-03-06T08:40:10.101Z,98077.41
2023-03-06T08:42:38.764Z,98075.03
2023-03-06T08:45:08.827Z,98075.84
2023-03-06T08:47:37.434Z,98079.28
2023-03-06T08:50:06.618Z,98079.34
2023-03-06T08:52:35.268Z,98078.38
2023-03-06T08:55:05.970Z,98085.75
2023-03-06T08:57:34.648Z,98082.75
2023-03-06T09:00:05.927Z,98079.22
2023-03-06T09:02:34.666Z,98072.88
2023-03-06T09:05:05.872Z,98078.69
2023-03-06T09:07:34.811Z,98076.53
2023-03-06T09:10:05.339Z,98077.34
2023-03-06T09:12:47.381Z,98072.38
2023-03-06T09:15:18.322Z,98073.19
2023-03-06T09:17:47.322Z,98068.41
2023-03-06T09:20:16.460Z,98066.59
2023-03-06T09:22:45.600Z,98078.38
2023-03-06T09:25:20.164Z,98080.16
2023-03-06T09:27:58.365Z,98076.75
2023-03-06T09:30:33.976Z,98077.97
2023-03-06T09:33:02.657Z,98068.19
2023-03-06T09:35:31.264Z,98082.56
2023-03-06T09:37:59.893Z,98072.38
2023-03-06T09:40:38.471Z,98066.59
2023-03-06T09:43:07.145Z,98078.16
2023-03-06T09:45:37.569Z,98068.19
2023-03-06T09:48:11.988Z,98075.38
2023-03-06T09:50:44.514Z,98074.38
2023-03-06T09:53:21.837Z,98081.16
2023-03-06T09:55:59.117Z,98068.56
2023-03-06T09:58:28.800Z,98083.38
2023-03-06T10:01:01.552Z,98079.75
2023-03-06T10:03:32.732Z,98078.19
2023-03-06T10:06:04.220Z,98074.59
2023-03-06T10:08:42.313Z,98078.19
2023-03-06T10:11:14.372Z,98078.19
2023-03-06T10:13:45.256Z,98080.34
2023-03-06T10:16:23.132Z,98070.78
2023-03-06T10:18:52.012Z,98072.59
2023-03-06T10:21:31.370Z,98080.34
2023-03-06T10:24:06.277Z,98077.56
2023-03-06T10:26:39.273Z,98068.41
2023-03-06T10:29:23.336Z,98075.16
2023-03-06T10:32:00.171Z,98074.38
2023-03-06T10:34:31.061Z,98064.38
2023-03-06T10:37:00.193Z,98072.97
2023-03-06T10:39:30.666Z,98077.38
2023-03-06T10:42:00.846Z,98072.00
2023-03-06T10:44:29.584Z,98076.16
2023-03-06T10:46:58.216Z,98080.94
2023-03-06T10:49:33.720Z,98073.38
2023-03-06T10:52:06.707Z,98071.97
2023-03-06T10:54:36.621Z,98069.75
2023-03-06T10:57:24.984Z,98071.75
2023-03-06T10:59:55.380Z,98078.16
2023-03-06T11:02:29.489Z,98075.38
2023-03-06T11:04:59.495Z,98072.38
2023-03-06T11:07:29.295Z,98079.56
2023-03-06T11:10:13.666Z,98078.94
2023-03-06T11:12:44.477Z,98074.78
2023-03-06T11:15:22.431Z,98066.00
2023-03-06T11:18:02.872Z,98068.59
2023-03-06T11:20:50.024Z,98073.97
2023-03-06T11:23:22.327Z,98065.19
2023-03-06T11:25:54.778Z,98063.00
2023-03-06T11:28:27.584Z,98061.59
2023-03-06T11:30:59.956Z,98064.22
2023-03-06T11:33:32.199Z,98057.22
2023-03-06T11:36:06.298Z,98053.22
2023-03-06T11:38:40.709Z,98058.19
2023-03-06T11:41:16.303Z,98058.78
2023-03-06T11:43:52.438Z,98050.22
2023-03-06T11:46:23.811Z,98046.44
2023-03-06T11:48:54.968Z,98038.44
2023-03-06T11:51:25.862Z,98036.63
2023-03-06T11:53:54.944Z,98038.63
2023-03-06T11:56:32.790Z,98027.63
2023-03-06T11:59:21.642Z,98030.56
2023-03-06T12:01:57.605Z,98022.56
2023-03-06T12:04:39.177Z,98021.19
2023-03-06T12:07:21.506Z,98019.25
2023-03-06T12:09:56.112Z,98017.47
2023-03-06T12:12:50.750Z,98012.19
2023-03-06T12:15:24.780Z,98013.31
2023-03-06T12:18:05.053Z,98013.72
2023-03-06T12:20:43.871Z,98009.09
2023-03-06T12:23:21.032Z,98007.50
2023-03-06T12:25:53.457Z,97997.13
2023-03-06T12:28:32.970Z,97994.94
2023-03-06T12:31:33.174Z,97996.72
2023-03-06T12:34:08.762Z,97995.91
2023-03-06T12:36:47.721Z,98001.25
2023-03-06T12:39:18.970Z,97996.03
2023-03-06T12:41:54.252Z,97996.00
2023-03-06T12:44:44.093Z,97991.47
2023-03-06T12:47:16.741Z,97988.66
2023-03-06T12:49:50.845Z,97983.22
2023-03-06T12:52:29.708Z,97989.53
2023-03-06T12:55:00.163Z,97988.34
2023-03-06T12:57:28.995Z,97980.75
2023-03-06T12:59:57.657Z,97975.22
2023-03-06T13:02:55.279Z,97980.06
2023-03-06T13:05:39.473Z,97978.25
2023-03-06T13:08:26.625Z,97976.88
2023-03-06T13:11:16.161Z,97977.50
2023-03-06T13:13:46.260Z,97971.09
2023-03-06T13:16:15.741Z,97972.94
2023-03-06T13:18:51.519Z,97976.06
2023-03-06T13:21:45.544Z,97970.84
2023-03-06T13:24:19.113Z,97964.59
2023-03-06T13:26:59.454Z,97979.75
2023-03-06T13:30:09.658Z,97978.72
2023-03-06T13:32:38.365Z,97965.78
2023-03-06T13:35:49.462Z,97966.03
2023-03-06T13:38:34.445Z,97976.81
2023-03-06T13:41:40.317Z,97969.59
2023-03-06T13:44:42.392Z,97976.06
2023-03-06T13:48:10.946Z,97976.06
2023-03-06T13:50:41.313Z,97973.28
2023-03-06T13:53:52.655Z,97964.72
2023-03-06T13:56:52.593Z,97971.09
2023-03-06T14:00:10.295Z,97967.66
2023-03-06T14:02:52.613Z,97966.22
2023-03-06T14:05:21.361Z,97966.66
2023-03-06T14:08:03.679Z,97967.06
2023-03-06T14:10:34.655Z,97966.31
2023-03-06T14:13:07.052Z,97959.56
2023-03-06T14:15:44.482Z,97957.16
2023-03-06T14:18:19.968Z,97956.59
2023-03-06T14:20:52.736Z,97957.03
2023-03-06T14:23:28.038Z,97953.28
2023-03-06T14:26:00.904Z,97949.84
2023-03-06T14:28:32.286Z,97956.84
2023-03-06T14:31:02.251Z,97946.13
2023-03-06T14:33:34.275Z,97947.97
2023-03-06T14:36:04.606Z,97944.78
2023-03-06T14:38:36.662Z,97951.09
2023-03-06T14:41:06.247Z,97950.28
2023-03-06T14:43:36.282Z,97948.66
2023-03-06T14:46:07.840Z,97945.47
2023-03-06T14:48:40.130Z,97944.25
2023-03-06T14:51:15.436Z,97952.06
2023-03-06T14:53:45.510Z,97946.13
2023-03-06T14:56:17.781Z,97939.09
2023-03-06T14:58:53.016Z,97948.72
2023-03-06T15:01:30.510Z,97946.53
2023-03-06T15:04:00.888Z,97949.53
2023-03-06T15:06:34.460Z,97942.38
2023-03-06T15:09:07.936Z,97940.38
2023-03-06T15:11:56.956Z,97944.34
2023-03-06T15:14:32.913Z,97941.56
2023-03-06T15:17:23.818Z,97939.94
2023-03-06T15:19:54.454Z,97944.94
2023-03-06T15:22:29.166Z,97940.13
2023-03-06T15:25:26.664Z,97941.16
2023-03-06T15:27:56.759Z,97939.16
2023-03-06T15:30:29.531Z,97938.56
2023-03-06T15:33:12.174Z,97941.16
2023-03-06T15:35:41.034Z,97937.41
2023-03-06T15:38:25.385Z,97940.25
2023-03-06T15:40:58.610Z,97941.28
2023-03-06T15:43:28.633Z,97945.06
2023-03-06T15:46:00.447Z,97934.53
2023-03-06T15:48:29.366Z,97949.69
2023-03-06T15:50:58.075Z,97946.28
2023-03-06T15:53:26.786Z,97953.06
2023-03-06T15:55:55.661Z,97946.88
2023-03-06T15:58:26.810Z,97952.28
2023-03-06T16:00:55.472Z,97958.84
2023-03-06T16:03:25.589Z,97951.50
2023-03-06T16:05:54.256Z,97954.47
2023-03-06T16:08:22.925Z,97963.06
2023-03-06T16:10:52.430Z,97953.69
2023-03-06T16:13:27.225Z,97957.50
2023-03-06T16:15:56.066Z,97964.50
2023-03-06T16:18:26.055Z,97961.91
2023-03-06T16:20:54.705Z,97959.72
2023-03-06T16:23:23.416Z,97964.09
2023-03-06T16:25:52.140Z,97965.09
2023-03-06T16:28:20.930Z,97967.28
2023-03-06T16:30:49.554Z,97967.09
2023-03-06T16:33:18.372Z,97965.31
2023-03-06T16:35:49.862Z,97967.88
2023-03-06T16:38:18.579Z,97967.69
2023-03-06T16:40:47.187Z,97981.22
2023-03-06T16:43:16.481Z,97985.03
2023-03-06T16:45:45.229Z,97989.59
2023-03-06T16:48:17.890Z,97994.00
2023-03-06T16:50:47.970Z,97982.63
2023-03-06T16:53:16.636Z,97992.63
2023-03-06T16:55:46.389Z,97992.41
2023-03-06T16:58:15.248Z,97992.78
2023-03-06T17:00:43.886Z,97992.41
2023-03-06T17:03:12.598Z,97999.38
2023-03-06T17:05:43.685Z,97997.16
2023-03-06T17:08:14.071Z,97997.78
2023-03-06T17:10:43.177Z,97997.75
2023-03-06T17:13:12.412Z,97993.97
2023-03-06T17:15:41.060Z,98000.78
2023-03-06T17:18:09.671Z,98003.34
2023-03-06T17:20:38.517Z,98011.13
2023-03-06T17:23:07.172Z,98010.13
2023-03-06T17:25:38.398Z,98013.94
2023-03-06T17:28:07.049Z,98012.13
2023-03-06T17:30:35.678Z,98019.31
2023-03-06T17:33:04.518Z,98018.06
2023-03-06T17:35:35.362Z,98023.28
2023-03-06T17:38:04.450Z,98019.50
2023-03-06T17:40:34.774Z,98016.69
2023-03-06T17:43:04.767Z,98019.09
2023-03-06T17:45:36.768Z,98023.06
2023-03-06T17:48:05.778Z,98030.22
2023-03-06T17:50:34.387Z,98031.06
2023-03-06T17:53:03.033Z,98029.66
2023-03-06T17:55:31.852Z,98034.00
2023-03-06T17:58:00.651Z,98032.22
2023-03-06T18:00:30.715Z,98038.56
2023-03-06T18:02:59.319Z,98042.16
2023-03-06T18:05:28.025Z,98035.97
2023-03-06T18:07:56.694Z,98035.16
2023-03-06T18:10:25.571Z,98030.81
2023-03-06T18:12:54.290Z,98036.97
2023-03-06T18:15:22.960Z,98034.56
2023-03-06T18:17:52.954Z,98034.97
2023-03-06T18:20:22.197Z,98032.00
2023-03-06T18:22:50.849Z,98035.97
2023-03-06T18:25:19.805Z,98040.16
2023-03-06T18:27:48.733Z,98041.16
2023-03-06T18:30:18.061Z,98030.16
2023-03-06T18:32:46.714Z,98042.94
2023-03-06T18:35:16.822Z,98044.13
2023-03-06T18:37:45.490Z,98038.75
2023-03-06T18:40:15.159Z,98037.56
2023-03-06T18:42:43.836Z,98041.72
2023-03-06T18:45:13.245Z,98039.75
2023-03-06T18:47:42.217Z,98037.38
2023-03-06T18:50:16.412Z,98038.34
2023-03-06T18:52:46.538Z,98039.53
2023-03-06T18:55:15.377Z,98041.91
2023-03-06T18:57:43.986Z,98043.72
2023-03-06T19:00:13.621Z,98042.13
2023-03-06T19:02:42.292Z,98049.69
2023-03-06T19:05:11.125Z,98032.56
2023-03-06T19:07:40.360Z,98047.50
2023-03-06T19:10:11.996Z,98048.84
2023-03-06T19:12:40.653Z,98041.66
2023-03-06T19:15:10.252Z,98035.50
2023-03-06T19:17:38.938Z,98037.09
2023-03-06T19:20:08.582Z,98042.47
2023-03-06T19:22:37.355Z,98042.25
2023-03-06T19:25:07.798Z,98024.50
2023-03-06T19:27:39.409Z,98025.84
2023-03-06T19:30:09.611Z,98024.09
2023-03-06T19:32:38.332Z,98026.88
2023-03-06T19:35:07.788Z,98032.03
2023-03-06T19:37:36.427Z,98024.63
2023-03-06T19:40:06.264Z,98031.41
2023-03-06T19:42:34.932Z,98035.81
2023-03-06T19:45:05.554Z,98031.66
2023-03-06T19:47:34.216Z,98032.25
2023-03-06T19:50:02.892Z,98028.25
2023-03-06T19:52:31.667Z,98027.84
2023-03-06T19:55:00.461Z,98030.44
2023-03-06T19:57:29.365Z,98023.41
2023-03-06T19:59:58.760Z,98026.63
2023-03-06T20:02:29.199Z,98023.66
2023-03-06T20:04:57.908Z,98026.66
2023-03-06T20:07:26.632Z,98028.44
2023-03-06T20:10:00.221Z,98028.88
2023-03-06T20:12:28.959Z,98023.66
2023-03-06T20:14:57.622Z,98029.63
2023-03-06T20:17:26.344Z,98028.81
2023-03-06T20:19:56.652Z,98031.22
2023-03-06T20:22:25.474Z,98028.00
2023-03-06T20:24:54.364Z,98026.00
2023-03-06T20:27:23.098Z,98023.84
2023-03-06T20:29:51.940Z,98024.63
2023-03-06T20:32:20.967Z,98020.44
2023-03-06T20:34:49.924Z,98013.66
2023-03-06T20:37:19.953Z,98015.25
2023-03-06T20:39:48.684Z,98015.25
2023-03-06T20:42:17.702Z,98017.59
2023-03-06T20:44:46.402Z,98011.44
2023-03-06T20:47:15.411Z,98024.59
2023-03-06T20:49:44.019Z,98018.63
2023-03-06T20:52:12.772Z,98022.38
2023-03-06T20:54:42.784Z,98024.97
2023-03-06T20:57:11.447Z,98022.56
2023-03-06T20:59:40.221Z,98027.72
2023-03-06T21:02:10.650Z,98018.31
2023-03-06T21:04:41.029Z,98017.94
2023-03-06T21:07:09.837Z,98013.34
2023-03-06T21:09:39.634Z,98012.56
2023-03-06T21:12:09.658Z,98006.22
2023-03-06T21:14:38.390Z,98002.63
2023-03-06T21:17:07.080Z,98001.84
2023-03-06T21:19:37.019Z,98000.03
2023-03-06T21:22:05.612Z,97990.09
2023-03-06T21:24:34.248Z,97996.84
2023-03-06T21:27:03.601Z,97995.44
2023-03-06T21:29:33.575Z,97994.81
2023-03-06T21:32:02.206Z,97987.00
2023-03-06T21:34:30.918Z,97975.91
2023-03-06T21:36:59.547Z,97976.50
2023-03-06T21:39:28.300Z,97974.56
2023-03-06T21:41:56.960Z,97981.84
2023-03-06T21:44:25.659Z,97975.25
2023-03-06T21:46:56.040Z,97975.09
2023-03-06T21:49:26.261Z,97976.66
2023-03-06T21:51:54.917Z,97973.28
2023-03-06T21:54:23.533Z,97965.91
2023-03-06T21:56:52.391Z,97975.69
2023-03-06T21:59:21.006Z,97966.13
2023-03-06T22:01:49.696Z,97967.31
2023-03-06T22:04:19.871Z,97972.66
2023-03-06T22:06:48.590Z,97968.06
2023-03-06T22:09:19.040Z,97959.63
2023-03-06T22:11:47.911Z,97966.22
2023-03-06T22:14:16.872Z,97960.09
2023-03-06T22:16:45.534Z,97955.72
2023-03-06T22:19:14.284Z,97952.75
2023-03-06T22:21:44.334Z,97959.34
2023-03-06T22:24:12.924Z,97956.34
2023-03-06T22:26:41.578Z,97963.34
2023-03-06T22:29:10.335Z,97952.16
2023-03-06T22:31:40.381Z,97960.34
2023-03-06T22:34:09.231Z,97960.84
2023-03-06T22:36:37.843Z,97950.84
2023-03-06T22:39:07.823Z,97955.66
2023-03-06T22:41:36.378Z,97954.31
2023-03-06T22:44:05.402Z,97956.50
2023-03-06T22:46:34.334Z,97948.50
2023-03-06T22:49:03.324Z,97946.69
2023-03-06T22:51:31.965Z,97950.69
2023-03-06T22:54:00.571Z,97948.50
2023-03-06T22:56:30.623Z,97953.91
2023-03-06T22:59:00.000Z,97946.94
2023-03-06T23:01:30.126Z,97948.34
2023-03-06T23:04:00.164Z,97938.59
2023-03-06T23:06:30.783Z,97940.16
2023-03-06T23:09:01.534Z,97940.59
2023-03-06T23:11:31.755Z,97942.78
2023-03-06T23:14:00.722Z,97934.84
2023-03-06T23:16:29.384Z,97943.81
2023-03-06T23:18:58.418Z,97938.84
2023-03-06T23:21:27.098Z,97936.06
2023-03-06T23:23:56.680Z,97934.25
2023-03-06T23:26:27.236Z,97927.72
2023-03-06T23:28:58.212Z,97927.31
2023-03-06T23:31:29.053Z,97922.75
2023-03-06T23:33:58.665Z,97920.94
2023-03-06T23:36:28.160Z,97926.84
2023-03-06T23:38:57.318Z,97914.94
2023-03-06T23:41:26.202Z,97915.75
2023-03-06T23:43:55.422Z,97913.97
2023-03-06T23:46:25.520Z,97925.75
2023-03-06T23:48:54.454Z,97922.34
2023-03-06T23:51:23.578Z,97917.00
2023-03-06T23:53:56.512Z,97915.97
2023-03-06T23:56:25.635Z,97910.81
2023-03-06T23:58:54.578Z,97915.97
